createdAt,value
2022-08-25T00:01:59.976Z,62.33
2022-08-25T00:04:29.637Z,62.10
2022-08-25T00:07:03.102Z,62.25
2022-08-25T00:09:33.182Z,62.22
2022-08-25T00:12:01.730Z,62.46
2022-08-25T00:14:33.485Z,62.52
2022-08-25T00:17:02.337Z,62.74
2022-08-25T00:19:33.830Z,62.49
2022-08-25T00:22:03.923Z,62.94
2022-08-25T00:24:32.706Z,62.91
2022-08-25T00:27:02.555Z,63.03
2022-08-25T00:29:32.077Z,63.15
2022-08-25T00:32:00.167Z,63.22
2022-08-25T00:34:31.472Z,63.20
2022-08-25T00:36:59.575Z,63.30
2022-08-25T00:39:28.841Z,63.46
2022-08-25T00:41:58.555Z,63.61
2022-08-25T00:44:28.126Z,63.75
2022-08-25T00:46:58.259Z,63.78
2022-08-25T00:49:29.726Z,64.03
2022-08-25T00:52:01.338Z,64.28
2022-08-25T00:54:33.710Z,64.04
2022-08-25T00:57:04.072Z,64.37
2022-08-25T00:59:32.387Z,64.25
2022-08-25T01:02:01.568Z,64.17
2022-08-25T01:04:29.576Z,64.20
2022-08-25T01:06:59.704Z,64.40
2022-08-25T01:09:29.794Z,64.75
2022-08-25T01:11:59.340Z,64.93
2022-08-25T01:14:28.989Z,65.25
2022-08-25T01:16:58.131Z,65.30
2022-08-25T01:19:28.710Z,65.41
2022-08-25T01:21:58.057Z,65.92
2022-08-25T01:24:32.426Z,65.79
2022-08-25T01:27:01.267Z,66.02
2022-08-25T01:29:30.644Z,66.04
2022-08-25T01:32:02.119Z,66.17
2022-08-25T01:34:31.824Z,66.52
2022-08-25T01:37:02.140Z,66.78
2022-08-25T01:39:33.874Z,67.06
2022-08-25T01:42:14.595Z,66.98
2022-08-25T01:44:45.048Z,67.10
2022-08-25T01:47:14.305Z,66.83
2022-08-25T01:49:42.198Z,67.28
2022-08-25T01:52:20.234Z,66.95
2022-08-25T01:54:49.735Z,67.08
2022-08-25T01:57:17.835Z,67.05
2022-08-25T01:59:46.018Z,67.28
2022-08-25T02:02:14.073Z,67.12
2022-08-25T02:04:42.542Z,67.19
2022-08-25T02:07:13.890Z,67.55
2022-08-25T02:09:41.951Z,67.58
2022-08-25T02:12:10.282Z,67.59
2022-08-25T02:14:38.767Z,67.53
2022-08-25T02:17:07.529Z,67.88
2022-08-25T02:19:35.411Z,67.94
2022-08-25T02:22:03.311Z,67.78
2022-08-25T02:24:32.889Z,68.11
2022-08-25T02:27:01.262Z,68.66
2022-08-25T02:29:29.121Z,69.21
2022-08-25T02:31:57.041Z,69.43
2022-08-25T02:34:24.861Z,69.41
2022-08-25T02:36:52.718Z,69.35
2022-08-25T02:39:20.597Z,69.38
2022-08-25T02:41:50.322Z,69.54
2022-08-25T02:44:18.175Z,69.19
2022-08-25T02:46:46.049Z,69.39
2022-08-25T02:49:14.000Z,69.07
2022-08-25T02:51:42.909Z,69.39
2022-08-25T02:54:10.951Z,69.63
2022-08-25T02:56:40.096Z,69.48
2022-08-25T02:59:09.408Z,69.40
2022-08-25T03:01:37.344Z,69.39
2022-08-25T03:04:05.245Z,69.51
2022-08-25T03:06:33.111Z,69.68
2022-08-25T03:09:01.440Z,69.88
2022-08-25T03:11:29.521Z,69.77
2022-08-25T03:13:57.453Z,69.91
2022-08-25T03:16:28.527Z,70.09
2022-08-25T03:18:57.630Z,70.00
2022-08-25T03:21:25.800Z,69.85
2022-08-25T03:23:53.713Z,70.25
2022-08-25T03:26:39.211Z,70.38
2022-08-25T03:29:07.367Z,70.15
2022-08-25T03:31:36.936Z,70.43
2022-08-25T03:34:04.806Z,70.61
2022-08-25T03:36:32.784Z,70.66
2022-08-25T03:39:00.651Z,70.94
2022-08-25T03:41:32.533Z,70.52
2022-08-25T03:44:01.467Z,70.80
2022-08-25T03:46:31.495Z,70.67
2022-08-25T03:49:02.245Z,70.82
2022-08-25T03:51:32.675Z,70.72
2022-08-25T03:54:01.792Z,70.90
2022-08-25T03:56:29.962Z,71.06
2022-08-25T03:58:58.219Z,71.41
2022-08-25T04:01:26.977Z,71.45
2022-08-25T04:03:55.206Z,71.41
2022-08-25T04:06:24.506Z,71.63
2022-08-25T04:08:53.519Z,72.29
2022-08-25T04:11:24.102Z,71.98
2022-08-25T04:13:53.336Z,72.26
2022-08-25T04:16:24.246Z,72.05
2022-08-25T04:18:54.881Z,72.21
2022-08-25T04:21:25.027Z,72.08
2022-08-25T04:23:54.079Z,71.58
2022-08-25T04:26:25.496Z,71.65
2022-08-25T04:28:53.438Z,71.99
2022-08-25T04:31:22.771Z,71.85
2022-08-25T04:33:51.173Z,72.09
2022-08-25T04:36:20.565Z,72.42
2022-08-25T04:38:50.905Z,72.34
2022-08-25T04:41:22.048Z,72.32
2022-08-25T04:43:50.155Z,72.48
2022-08-25T04:46:20.666Z,72.89
2022-08-25T04:48:48.994Z,72.70
2022-08-25T04:51:23.323Z,72.88
2022-08-25T04:53:53.418Z,72.97
2022-08-25T04:56:24.822Z,72.77
2022-08-25T04:58:53.513Z,72.72
2022-08-25T05:01:24.268Z,72.50
2022-08-25T05:03:56.462Z,72.67
2022-08-25T05:06:25.139Z,72.81
2022-08-25T05:08:54.574Z,72.92
2022-08-25T05:11:23.892Z,72.79
2022-08-25T05:13:54.312Z,73.02
2022-08-25T05:16:24.842Z,73.00
2022-08-25T05:18:54.074Z,73.03
2022-08-25T05:21:24.177Z,73.18
2022-08-25T05:23:57.790Z,72.75
2022-08-25T05:26:27.800Z,72.82
2022-08-25T05:28:56.392Z,73.03
2022-08-25T05:31:26.093Z,73.09
2022-08-25T05:33:54.836Z,72.89
2022-08-25T05:36:24.207Z,73.30
2022-08-25T05:38:52.427Z,73.02
2022-08-25T05:41:23.306Z,72.70
2022-08-25T05:43:51.899Z,72.42
2022-08-25T05:46:21.899Z,71.79
2022-08-25T05:48:50.536Z,71.79
2022-08-25T05:51:19.812Z,71.71
2022-08-25T05:53:50.480Z,71.75
2022-08-25T05:56:19.166Z,71.28
2022-08-25T05:58:49.064Z,71.27
2022-08-25T06:01:44.876Z,70.67
2022-08-25T06:04:13.455Z,70.73
2022-08-25T06:06:41.790Z,70.89
2022-08-25T06:09:10.363Z,70.11
2022-08-25T06:11:40.260Z,68.95
2022-08-25T06:14:11.031Z,68.67
2022-08-25T06:16:40.207Z,68.78
2022-08-25T06:19:10.390Z,68.91
2022-08-25T06:21:39.682Z,69.27
2022-08-25T06:24:10.023Z,69.21
2022-08-25T06:26:41.275Z,69.45
2022-08-25T06:29:10.484Z,69.14
2022-08-25T06:31:38.521Z,69.19
2022-08-25T06:34:06.946Z,68.90
2022-08-25T06:36:35.139Z,69.23
2022-08-25T06:39:03.271Z,69.36
2022-08-25T06:41:37.120Z,68.94
2022-08-25T06:44:06.112Z,69.14
2022-08-25T06:46:37.064Z,68.82
2022-08-25T06:49:06.091Z,68.58
2022-08-25T06:51:35.672Z,68.45
2022-08-25T06:54:04.392Z,68.21
2022-08-25T06:56:32.235Z,68.00
2022-08-25T06:59:01.803Z,67.79
2022-08-25T07:01:29.860Z,67.56
2022-08-25T07:04:07.579Z,66.97
2022-08-25T07:06:38.274Z,67.00
2022-08-25T07:09:08.864Z,67.18
2022-08-25T07:11:36.760Z,67.25
2022-08-25T07:14:06.836Z,66.42
2022-08-25T07:16:36.105Z,66.48
2022-08-25T07:19:06.841Z,66.01
2022-08-25T07:21:38.399Z,65.67
2022-08-25T07:24:07.894Z,64.89
2022-08-25T07:26:38.521Z,64.29
2022-08-25T07:29:10.167Z,64.09
2022-08-25T07:31:38.386Z,63.87
2022-08-25T07:34:26.182Z,63.65
2022-08-25T07:36:55.089Z,62.74
2022-08-25T07:39:23.769Z,62.20
2022-08-25T07:41:52.722Z,62.72
2022-08-25T07:44:22.206Z,61.24
2022-08-25T07:46:50.629Z,61.38
2022-08-25T07:49:23.509Z,60.93
2022-08-25T07:52:05.497Z,61.36
2022-08-25T07:54:37.666Z,60.18
2022-08-25T07:57:07.972Z,59.96
2022-08-25T07:59:39.267Z,59.86
2022-08-25T08:02:09.186Z,59.89
2022-08-25T08:04:50.105Z,59.37
2022-08-25T08:07:19.879Z,58.90
2022-08-25T08:09:53.098Z,59.13
2022-08-25T08:12:24.894Z,57.94
2022-08-25T08:14:53.857Z,58.24
2022-08-25T08:17:22.677Z,58.22
2022-08-25T08:19:53.309Z,57.98
2022-08-25T08:22:21.742Z,57.12
2022-08-25T08:24:54.875Z,57.32
2022-08-25T08:27:24.601Z,57.36
2022-08-25T08:29:53.656Z,56.87
2022-08-25T08:32:23.828Z,56.69
2022-08-25T08:35:00.985Z,56.68
2022-08-25T08:37:29.059Z,56.31
2022-08-25T08:39:57.936Z,56.08
2022-08-25T08:42:48.944Z,56.71
2022-08-25T08:45:35.689Z,56.53
2022-08-25T08:48:39.277Z,55.88
2022-08-25T08:51:20.644Z,55.39
2022-08-25T08:53:57.350Z,55.54
2022-08-25T08:56:30.751Z,55.35
2022-08-25T08:59:05.654Z,55.14
2022-08-25T09:01:52.523Z,55.17
2022-08-25T09:04:27.374Z,54.92
2022-08-25T09:07:02.043Z,55.04
2022-08-25T09:09:35.618Z,54.62
2022-08-25T09:12:14.798Z,54.79
2022-08-25T09:15:01.581Z,54.26
2022-08-25T09:17:54.488Z,53.98
2022-08-25T09:20:41.918Z,54.52
2022-08-25T09:23:24.887Z,54.46
2022-08-25T09:26:01.494Z,53.22
2022-08-25T09:28:33.634Z,52.39
2022-08-25T09:31:04.396Z,52.86
2022-08-25T09:33:35.525Z,52.99
2022-08-25T09:36:06.020Z,52.58
2022-08-25T09:38:35.761Z,52.46
2022-08-25T09:41:04.172Z,51.55
2022-08-25T09:43:34.643Z,52.14
2022-08-25T09:46:04.518Z,52.34
2022-08-25T09:48:39.707Z,52.46
2022-08-25T09:51:19.093Z,52.58
2022-08-25T09:53:53.606Z,51.97
2022-08-25T09:56:23.955Z,52.00
2022-08-25T09:59:03.035Z,51.41
2022-08-25T10:01:34.695Z,51.69
2022-08-25T10:04:05.482Z,51.42
2022-08-25T10:06:43.947Z,50.88
2022-08-25T10:09:26.676Z,50.81
2022-08-25T10:11:57.616Z,49.90
2022-08-25T10:14:36.533Z,49.77
2022-08-25T10:17:24.711Z,50.23
2022-08-25T10:20:13.220Z,49.35
2022-08-25T10:22:42.958Z,48.40
2022-08-25T10:25:15.140Z,48.23
2022-08-25T10:27:52.702Z,47.88
2022-08-25T10:30:27.903Z,49.14
2022-08-25T10:33:08.031Z,48.92
2022-08-25T10:35:47.100Z,48.88
2022-08-25T10:38:36.029Z,48.43
2022-08-25T10:41:17.953Z,48.28
2022-08-25T10:43:53.039Z,48.11
2022-08-25T10:46:33.781Z,48.40
2022-08-25T10:49:05.665Z,48.08
2022-08-25T10:51:42.274Z,46.84
2022-08-25T10:54:24.359Z,47.17
2022-08-25T10:57:02.093Z,47.89
2022-08-25T10:59:52.370Z,47.04
2022-08-25T11:03:06.019Z,47.11
2022-08-25T11:05:42.235Z,47.51
2022-08-25T11:08:16.651Z,47.40
2022-08-25T11:10:50.612Z,48.05
2022-08-25T11:13:32.038Z,47.89
2022-08-25T11:16:17.067Z,48.12
2022-08-25T11:18:52.155Z,48.20
2022-08-25T11:21:25.991Z,47.23
2022-08-25T11:23:59.866Z,47.40
2022-08-25T11:26:37.015Z,47.81
2022-08-25T11:29:13.742Z,47.59
2022-08-25T11:31:52.176Z,47.96
2022-08-25T11:34:22.433Z,47.77
2022-08-25T11:36:53.720Z,46.64
2022-08-25T11:39:35.620Z,47.00
2022-08-25T11:42:16.689Z,46.77
2022-08-25T11:44:58.880Z,46.07
2022-08-25T11:47:55.579Z,46.36
2022-08-25T11:50:31.106Z,45.36
2022-08-25T11:53:23.666Z,45.44
2022-08-25T11:55:58.716Z,44.91
2022-08-25T11:58:42.683Z,45.73
2022-08-25T12:01:34.184Z,45.48
2022-08-25T12:04:17.358Z,46.16
2022-08-25T12:07:18.329Z,46.27
2022-08-25T12:10:16.381Z,45.79
2022-08-25T12:13:04.647Z,45.42
2022-08-25T12:15:55.206Z,44.77
2022-08-25T12:18:46.696Z,45.37
2022-08-25T12:21:33.740Z,44.74
2022-08-25T12:24:15.198Z,43.97
2022-08-25T12:26:55.178Z,45.11
2022-08-25T12:29:31.083Z,44.26
2022-08-25T12:32:21.871Z,45.40
2022-08-25T12:35:18.585Z,45.36
2022-08-25T12:37:59.234Z,44.62
2022-08-25T12:40:32.666Z,45.04
2022-08-25T12:43:08.758Z,44.74
2022-08-25T12:45:40.690Z,43.63
2022-08-25T12:48:46.357Z,44.13
2022-08-25T12:51:20.084Z,44.80
2022-08-25T12:53:52.369Z,43.73
2022-08-25T12:56:25.978Z,43.66
2022-08-25T12:59:13.978Z,43.74
2022-08-25T13:01:58.797Z,43.00
2022-08-25T13:05:06.780Z,42.99
2022-08-25T13:07:53.073Z,43.38
2022-08-25T13:10:29.513Z,43.15
2022-08-25T13:13:05.253Z,42.82
2022-08-25T13:15:40.174Z,42.38
2022-08-25T13:18:21.461Z,42.08
2022-08-25T13:20:52.381Z,42.08
2022-08-25T13:23:27.108Z,42.11
2022-08-25T13:25:58.521Z,42.63
2022-08-25T13:28:30.986Z,42.00
2022-08-25T13:31:01.519Z,41.98
2022-08-25T13:33:29.561Z,41.39
2022-08-25T13:36:17.130Z,41.38
2022-08-25T13:38:49.316Z,42.03
2022-08-25T13:41:21.347Z,41.49
2022-08-25T13:44:00.824Z,41.59
2022-08-25T13:46:31.714Z,41.97
2022-08-25T13:49:08.643Z,42.00
2022-08-25T13:51:37.808Z,42.07
2022-08-25T13:54:09.731Z,41.45
2022-08-25T13:56:42.078Z,40.82
2022-08-25T13:59:23.900Z,41.22
2022-08-25T14:01:53.990Z,41.57
2022-08-25T14:04:27.336Z,41.75
2022-08-25T14:07:33.924Z,41.76
2022-08-25T14:10:08.039Z,41.64
2022-08-25T14:12:44.951Z,41.94
2022-08-25T14:15:29.431Z,41.99
2022-08-25T14:18:06.228Z,41.68
2022-08-25T14:20:37.045Z,42.76
2022-08-25T14:23:09.727Z,42.16
2022-08-25T14:25:40.484Z,42.00
2022-08-25T14:28:13.816Z,41.65
2022-08-25T14:30:47.337Z,41.53
2022-08-25T14:33:17.692Z,41.42
2022-08-25T14:35:50.167Z,41.22
2022-08-25T14:38:20.464Z,41.36
2022-08-25T14:40:50.167Z,41.95
2022-08-25T14:43:18.545Z,41.96
2022-08-25T14:45:52.446Z,41.34
2022-08-25T14:48:26.865Z,41.89
2022-08-25T14:50:57.031Z,41.92
2022-08-25T14:53:25.807Z,41.54
2022-08-25T14:55:58.844Z,40.76
2022-08-25T14:58:27.847Z,40.60
2022-08-25T15:01:02.536Z,40.88
2022-08-25T15:03:33.139Z,40.60
2022-08-25T15:06:02.041Z,41.08
2022-08-25T15:08:47.582Z,41.29
2022-08-25T15:11:17.240Z,41.26
2022-08-25T15:13:49.169Z,41.19
2022-08-25T15:16:33.991Z,41.03
2022-08-25T15:19:06.576Z,40.77
2022-08-25T15:21:35.774Z,40.69
2022-08-25T15:24:04.178Z,39.96
2022-08-25T15:26:39.385Z,40.25
2022-08-25T15:29:07.872Z,39.35
2022-08-25T15:31:37.000Z,39.74
2022-08-25T15:34:04.887Z,39.37
2022-08-25T15:36:40.002Z,39.66
2022-08-25T15:39:10.622Z,40.24
2022-08-25T15:41:40.039Z,40.07
2022-08-25T15:44:11.533Z,40.08
2022-08-25T15:46:42.484Z,39.94
2022-08-25T15:49:20.338Z,40.20
2022-08-25T15:51:48.827Z,39.55
2022-08-25T15:54:16.695Z,39.82
2022-08-25T15:56:45.939Z,39.66
2022-08-25T15:59:14.441Z,39.73
2022-08-25T16:01:43.714Z,39.56
2022-08-25T16:04:12.373Z,40.00
2022-08-25T16:06:40.309Z,39.92
2022-08-25T16:09:08.358Z,40.11
2022-08-25T16:11:38.662Z,39.60
2022-08-25T16:14:08.047Z,40.31
2022-08-25T16:16:36.563Z,40.25
2022-08-25T16:19:05.317Z,40.33
2022-08-25T16:21:37.064Z,40.18
2022-08-25T16:24:10.407Z,39.86
2022-08-25T16:26:48.210Z,39.85
2022-08-25T16:29:18.389Z,39.85
2022-08-25T16:31:53.435Z,40.48
2022-08-25T16:34:24.466Z,40.64
2022-08-25T16:36:53.450Z,40.36
2022-08-25T16:39:22.460Z,41.00
2022-08-25T16:41:52.573Z,40.70
2022-08-25T16:44:23.094Z,40.28
2022-08-25T16:46:54.233Z,40.27
2022-08-25T16:49:24.225Z,40.22
2022-08-25T16:51:57.145Z,40.65
2022-08-25T16:54:43.197Z,40.60
2022-08-25T16:57:11.059Z,41.27
2022-08-25T16:59:40.381Z,40.53
2022-08-25T17:02:08.446Z,41.47
2022-08-25T17:04:36.439Z,40.91
2022-08-25T17:07:06.166Z,41.02
2022-08-25T17:09:36.126Z,40.81
2022-08-25T17:12:05.630Z,41.30
2022-08-25T17:14:33.638Z,41.31
2022-08-25T17:17:03.980Z,41.89
2022-08-25T17:19:34.934Z,42.12
2022-08-25T17:22:02.819Z,42.26
2022-08-25T17:24:31.758Z,41.92
2022-08-25T17:27:02.170Z,42.15
2022-08-25T17:29:30.462Z,42.06
2022-08-25T17:31:58.505Z,42.45
2022-08-25T17:34:29.223Z,42.16
2022-08-25T17:36:58.885Z,42.22
2022-08-25T17:39:27.610Z,42.43
2022-08-25T17:41:56.268Z,42.58
2022-08-25T17:44:24.153Z,42.54
2022-08-25T17:46:52.691Z,42.47
2022-08-25T17:49:20.658Z,42.58
2022-08-25T17:51:49.908Z,43.06
2022-08-25T17:54:18.773Z,43.33
2022-08-25T17:56:47.100Z,43.99
2022-08-25T17:59:16.404Z,44.09
2022-08-25T18:01:45.528Z,43.82
2022-08-25T18:04:17.341Z,44.15
2022-08-25T18:06:46.788Z,44.06
2022-08-25T18:09:16.423Z,44.47
2022-08-25T18:11:45.779Z,44.40
2022-08-25T18:14:14.349Z,44.86
2022-08-25T18:16:42.444Z,44.53
2022-08-25T18:19:14.316Z,45.28
2022-08-25T18:21:43.322Z,45.18
2022-08-25T18:24:11.904Z,45.46
2022-08-25T18:26:42.990Z,45.31
2022-08-25T18:29:13.216Z,45.51
2022-08-25T18:31:42.269Z,45.97
2022-08-25T18:34:11.547Z,45.85
2022-08-25T18:36:39.882Z,46.17
2022-08-25T18:39:26.090Z,46.56
2022-08-25T18:41:55.724Z,46.73
2022-08-25T18:44:23.612Z,46.88
2022-08-25T18:46:51.594Z,47.20
2022-08-25T18:49:22.568Z,47.48
2022-08-25T18:51:54.689Z,47.82
2022-08-25T18:54:23.622Z,48.14
2022-08-25T18:56:53.247Z,48.34
2022-08-25T18:59:24.104Z,48.73
2022-08-25T19:01:53.601Z,48.93
2022-08-25T19:04:28.313Z,49.08
2022-08-25T19:07:00.354Z,49.55
2022-08-25T19:09:28.255Z,49.75
2022-08-25T19:11:57.045Z,49.76
2022-08-25T19:14:26.555Z,49.95
2022-08-25T19:16:55.027Z,50.17
2022-08-25T19:19:24.034Z,50.29
2022-08-25T19:21:53.086Z,50.45
2022-08-25T19:24:21.549Z,50.65
2022-08-25T19:26:54.146Z,50.74
2022-08-25T19:29:22.878Z,50.85
2022-08-25T19:31:52.179Z,51.01
2022-08-25T19:34:28.075Z,51.22
2022-08-25T19:36:59.884Z,51.43
2022-08-25T19:39:28.686Z,51.51
2022-08-25T19:41:59.313Z,51.79
2022-08-25T19:44:27.853Z,52.20
2022-08-25T19:46:57.492Z,52.20
2022-08-25T19:49:28.441Z,52.50
2022-08-25T19:52:00.300Z,52.40
2022-08-25T19:54:30.467Z,52.79
2022-08-25T19:56:59.151Z,52.90
2022-08-25T19:59:36.594Z,53.28
2022-08-25T20:02:15.881Z,53.75
2022-08-25T20:04:50.011Z,53.77
2022-08-25T20:07:20.619Z,53.92
2022-08-25T20:09:49.338Z,53.91
2022-08-25T20:12:20.136Z,53.92
2022-08-25T20:14:50.269Z,54.22
2022-08-25T20:17:24.632Z,54.49
2022-08-25T20:19:56.046Z,54.62
2022-08-25T20:22:26.549Z,54.24
2022-08-25T20:24:58.065Z,54.44
2022-08-25T20:27:31.955Z,55.26
2022-08-25T20:30:02.562Z,55.04
2022-08-25T20:32:33.852Z,55.57
2022-08-25T20:35:02.222Z,55.84
2022-08-25T20:37:31.615Z,56.03
2022-08-25T20:40:02.401Z,56.26
2022-08-25T20:42:30.747Z,56.55
2022-08-25T20:45:00.126Z,56.58
2022-08-25T20:47:29.868Z,56.86
2022-08-25T20:50:03.370Z,56.63
2022-08-25T20:52:36.326Z,56.46
2022-08-25T20:55:08.871Z,57.09
2022-08-25T20:57:37.935Z,56.67
2022-08-25T21:00:08.531Z,56.83
2022-08-25T21:02:37.532Z,57.62
2022-08-25T21:05:08.756Z,57.44
2022-08-25T21:07:36.798Z,58.12
2022-08-25T21:10:10.464Z,57.61
2022-08-25T21:12:42.202Z,58.54
2022-08-25T21:15:11.650Z,58.61
2022-08-25T21:17:39.715Z,58.57
2022-08-25T21:20:10.712Z,58.68
2022-08-25T21:22:39.255Z,58.77
2022-08-25T21:25:08.473Z,58.70
2022-08-25T21:27:36.427Z,59.07
2022-08-25T21:30:05.772Z,59.00
2022-08-25T21:32:34.775Z,59.17
2022-08-25T21:35:03.075Z,59.01
2022-08-25T21:37:37.150Z,59.50
2022-08-25T21:40:06.974Z,59.40
2022-08-25T21:42:36.589Z,59.77
2022-08-25T21:45:04.835Z,59.45
2022-08-25T21:47:42.327Z,60.09
2022-08-25T21:50:10.860Z,60.02
2022-08-25T21:52:41.246Z,60.30
2022-08-25T21:55:15.868Z,60.48
2022-08-25T21:57:44.206Z,60.28
2022-08-25T22:00:13.672Z,60.36
2022-08-25T22:02:43.777Z,60.29
2022-08-25T22:05:12.160Z,60.31
2022-08-25T22:07:42.290Z,60.42
2022-08-25T22:10:16.753Z,60.62
2022-08-25T22:12:46.294Z,60.71
2022-08-25T22:15:15.525Z,61.10
2022-08-25T22:17:43.759Z,61.27
2022-08-25T22:20:12.584Z,61.08
2022-08-25T22:22:42.144Z,61.02
2022-08-25T22:25:10.251Z,61.10
2022-08-25T22:27:38.512Z,61.35
2022-08-25T22:30:07.816Z,61.49
2022-08-25T22:32:36.471Z,61.43
2022-08-25T22:35:05.651Z,61.55
2022-08-25T22:37:34.079Z,61.73
2022-08-25T22:40:05.771Z,61.94
2022-08-25T22:42:33.766Z,62.04
2022-08-25T22:45:02.240Z,62.01
2022-08-25T22:47:31.202Z,62.25
2022-08-25T22:49:59.526Z,62.14
2022-08-25T22:52:33.793Z,62.37
2022-08-25T22:55:04.962Z,62.69
2022-08-25T22:57:36.216Z,62.79
2022-08-25T23:00:05.699Z,62.69
2022-08-25T23:02:35.774Z,62.94
2022-08-25T23:05:04.989Z,63.06
2022-08-25T23:07:36.803Z,63.09
2022-08-25T23:10:12.274Z,63.10
2022-08-25T23:12:42.690Z,62.99
2022-08-25T23:15:13.194Z,63.23
2022-08-25T23:17:42.169Z,63.01
2022-08-25T23:20:25.309Z,63.10
2022-08-25T23:22:53.487Z,63.20
2022-08-25T23:25:23.192Z,63.68
2022-08-25T23:27:51.663Z,63.86
2022-08-25T23:30:19.893Z,64.12
2022-08-25T23:32:49.395Z,64.15
2022-08-25T23:35:18.114Z,64.30
2022-08-25T23:38:02.058Z,64.68
2022-08-25T23:40:31.307Z,64.55
2022-08-25T23:42:59.403Z,64.38
2022-08-25T23:45:27.667Z,64.13
2022-08-25T23:47:55.583Z,64.01
2022-08-25T23:50:23.470Z,64.04
2022-08-25T23:52:52.891Z,64.26
2022-08-25T23:55:20.978Z,64.30
2022-08-25T23:57:51.657Z,64.60
